sensor_id;sensor_type;location;lat;lon;timestamp;temperature;humidity
23579;DHT22;11967;50.852;4.400;2023-03-26T00:00:45;12.20;99.90
23579;DHT22;11967;50.852;4.400;2023-03-26T00:03:14;12.20;99.90
23579;DHT22;11967;50.852;4.400;2023-03-26T00:05:41;12.30;99.90
23579;DHT22;11967;50.852;4.400;2023-03-26T00:08:07;12.30;99.90
23579;DHT22;11967;50.852;4.400;2023-03-26T00:10:34;12.20;99.90
23579;DHT22;11967;50.852;4.400;2023-03-26T00:13:01;12.30;99.90
23579;DHT22;11967;50.852;4.400;2023-03-26T00:15:27;12.30;99.90
23579;DHT22;11967;50.852;4.400;2023-03-26T00:17:53;12.30;99.90
23579;DHT22;11967;50.852;4.400;2023-03-26T00:20:19;12.30;99.90
23579;DHT22;11967;50.852;4.400;2023-03-26T00:22:45;12.30;99.90
23579;DHT22;11967;50.852;4.400;2023-03-26T00:25:10;12.30;99.90
23579;DHT22;11967;50.852;4.400;2023-03-26T00:27:36;12.20;99.90
23579;DHT22;11967;50.852;4.400;2023-03-26T00:30:03;12.20;99.90
23579;DHT22;11967;50.852;4.400;2023-03-26T00:32:29;12.20;99.90
23579;DHT22;11967;50.852;4.400;2023-03-26T00:34:56;12.20;99.90
23579;DHT22;11967;50.852;4.400;2023-03-26T00:37:23;12.10;99.90
23579;DHT22;11967;50.852;4.400;2023-03-26T00:39:55;12.20;99.90
23579;DHT22;11967;50.852;4.400;2023-03-26T00:42:24;12.10;99.90
23579;DHT22;11967;50.852;4.400;2023-03-26T00:44:50;12.10;99.90
23579;DHT22;11967;50.852;4.400;2023-03-26T00:47:25;12.20;99.90
23579;DHT22;11967;50.852;4.400;2023-03-26T00:49:51;12.20;99.90
23579;DHT22;11967;50.852;4.400;2023-03-26T00:52:17;12.20;99.90
23579;DHT22;11967;50.852;4.400;2023-03-26T00:54:44;12.20;99.90
23579;DHT22;11967;50.852;4.400;2023-03-26T00:57:10;12.20;99.90
23579;DHT22;11967;50.852;4.400;2023-03-26T00:59:37;12.20;99.90
23579;DHT22;11967;50.852;4.400;2023-03-26T01:02:03;12.30;99.90
23579;DHT22;11967;50.852;4.400;2023-03-26T01:04:31;12.20;99.90
23579;DHT22;11967;50.852;4.400;2023-03-26T01:07:14;12.30;99.90
23579;DHT22;11967;50.852;4.400;2023-03-26T01:09:47;12.30;99.90
23579;DHT22;11967;50.852;4.400;2023-03-26T01:12:20;12.30;99.90
23579;DHT22;11967;50.852;4.400;2023-03-26T01:14:49;12.20;99.90
23579;DHT22;11967;50.852;4.400;2023-03-26T01:17:16;12.30;99.90
23579;DHT22;11967;50.852;4.400;2023-03-26T01:23:01;12.10;99.90
23579;DHT22;11967;50.852;4.400;2023-03-26T01:25:33;12.00;99.90
23579;DHT22;11967;50.852;4.400;2023-03-26T01:28:04;12.00;99.90
23579;DHT22;11967;50.852;4.400;2023-03-26T01:30:37;12.10;99.90
23579;DHT22;11967;50.852;4.400;2023-03-26T01:33:33;12.10;99.90
23579;DHT22;11967;50.852;4.400;2023-03-26T01:41:29;12.10;99.90
23579;DHT22;11967;50.852;4.400;2023-03-26T01:46:40;12.00;99.90
23579;DHT22;11967;50.852;4.400;2023-03-26T01:49:07;12.10;99.90
23579;DHT22;11967;50.852;4.400;2023-03-26T01:51:38;12.10;99.90
23579;DHT22;11967;50.852;4.400;2023-03-26T01:54:08;12.20;99.90
23579;DHT22;11967;50.852;4.400;2023-03-26T01:59:36;12.20;99.90
23579;DHT22;11967;50.852;4.400;2023-03-26T02:04:59;12.20;99.90
23579;DHT22;11967;50.852;4.400;2023-03-26T02:07:41;12.20;99.90
23579;DHT22;11967;50.852;4.400;2023-03-26T02:10:28;12.30;99.90
23579;DHT22;11967;50.852;4.400;2023-03-26T02:12:55;12.20;99.90
23579;DHT22;11967;50.852;4.400;2023-03-26T02:15:21;12.20;99.90
23579;DHT22;11967;50.852;4.400;2023-03-26T02:17:47;12.20;99.90
23579;DHT22;11967;50.852;4.400;2023-03-26T02:20:15;12.20;99.90
23579;DHT22;11967;50.852;4.400;2023-03-26T02:22:44;12.20;99.90
23579;DHT22;11967;50.852;4.400;2023-03-26T02:25:18;12.20;99.90
23579;DHT22;11967;50.852;4.400;2023-03-26T02:27:46;12.10;99.90
23579;DHT22;11967;50.852;4.400;2023-03-26T02:30:15;12.20;99.90
23579;DHT22;11967;50.852;4.400;2023-03-26T02:32:41;12.10;99.90
23579;DHT22;11967;50.852;4.400;2023-03-26T02:35:09;12.10;99.90
23579;DHT22;11967;50.852;4.400;2023-03-26T02:37:35;12.10;99.90
23579;DHT22;11967;50.852;4.400;2023-03-26T02:40:01;12.10;99.90
23579;DHT22;11967;50.852;4.400;2023-03-26T02:42:29;12.20;99.90
23579;DHT22;11967;50.852;4.400;2023-03-26T02:44:54;12.20;99.90
23579;DHT22;11967;50.852;4.400;2023-03-26T02:47:20;12.20;99.90
23579;DHT22;11967;50.852;4.400;2023-03-26T02:49:45;12.20;99.90
23579;DHT22;11967;50.852;4.400;2023-03-26T02:52:11;12.20;99.90
23579;DHT22;11967;50.852;4.400;2023-03-26T02:54:37;12.20;99.90
23579;DHT22;11967;50.852;4.400;2023-03-26T02:57:03;12.10;99.90
23579;DHT22;11967;50.852;4.400;2023-03-26T02:59:28;12.20;99.90
23579;DHT22;11967;50.852;4.400;2023-03-26T03:01:54;12.30;99.90
23579;DHT22;11967;50.852;4.400;2023-03-26T03:04:19;12.20;99.90
23579;DHT22;11967;50.852;4.400;2023-03-26T03:06:46;12.10;99.90
23579;DHT22;11967;50.852;4.400;2023-03-26T03:09:12;12.20;99.90
23579;DHT22;11967;50.852;4.400;2023-03-26T03:11:40;12.20;99.90
23579;DHT22;11967;50.852;4.400;2023-03-26T03:14:06;12.20;99.90
23579;DHT22;11967;50.852;4.400;2023-03-26T03:16:32;12.20;99.90
23579;DHT22;11967;50.852;4.400;2023-03-26T03:18:58;12.20;99.90
23579;DHT22;11967;50.852;4.400;2023-03-26T03:21:26;12.20;99.90
23579;DHT22;11967;50.852;4.400;2023-03-26T03:23:55;12.10;99.90
23579;DHT22;11967;50.852;4.400;2023-03-26T03:26:23;12.20;99.90
23579;DHT22;11967;50.852;4.400;2023-03-26T03:28:53;12.20;99.90
23579;DHT22;11967;50.852;4.400;2023-03-26T03:31:20;12.30;99.90
23579;DHT22;11967;50.852;4.400;2023-03-26T03:33:46;12.30;99.90
23579;DHT22;11967;50.852;4.400;2023-03-26T03:36:13;12.30;99.90
23579;DHT22;11967;50.852;4.400;2023-03-26T03:38:40;12.20;99.90
23579;DHT22;11967;50.852;4.400;2023-03-26T03:41:06;12.20;99.90
23579;DHT22;11967;50.852;4.400;2023-03-26T03:43:33;12.30;99.90
23579;DHT22;11967;50.852;4.400;2023-03-26T03:45:59;12.30;99.90
23579;DHT22;11967;50.852;4.400;2023-03-26T03:48:26;12.30;99.90
23579;DHT22;11967;50.852;4.400;2023-03-26T03:50:53;12.30;99.90
23579;DHT22;11967;50.852;4.400;2023-03-26T03:53:20;12.30;99.90
23579;DHT22;11967;50.852;4.400;2023-03-26T03:55:45;12.30;99.90
23579;DHT22;11967;50.852;4.400;2023-03-26T03:58:18;12.30;99.90
23579;DHT22;11967;50.852;4.400;2023-03-26T04:00:47;12.40;99.90
23579;DHT22;11967;50.852;4.400;2023-03-26T04:03:14;12.40;99.90
23579;DHT22;11967;50.852;4.400;2023-03-26T04:05:39;12.40;99.90
23579;DHT22;11967;50.852;4.400;2023-03-26T04:08:05;12.40;99.90
23579;DHT22;11967;50.852;4.400;2023-03-26T04:10:31;12.40;99.90
23579;DHT22;11967;50.852;4.400;2023-03-26T04:12:56;12.40;99.90
23579;DHT22;11967;50.852;4.400;2023-03-26T04:15:22;12.30;99.90
23579;DHT22;11967;50.852;4.400;2023-03-26T04:17:48;12.30;99.90
23579;DHT22;11967;50.852;4.400;2023-03-26T04:20:13;12.10;99.90
23579;DHT22;11967;50.852;4.400;2023-03-26T04:22:41;12.10;99.90
23579;DHT22;11967;50.852;4.400;2023-03-26T04:25:09;12.10;99.90
23579;DHT22;11967;50.852;4.400;2023-03-26T04:27:34;12.10;99.90
23579;DHT22;11967;50.852;4.400;2023-03-26T04:30:02;12.10;99.90
23579;DHT22;11967;50.852;4.400;2023-03-26T04:32:30;12.10;99.90
23579;DHT22;11967;50.852;4.400;2023-03-26T04:34:59;12.10;99.90
23579;DHT22;11967;50.852;4.400;2023-03-26T04:37:31;12.30;99.90
23579;DHT22;11967;50.852;4.400;2023-03-26T04:39:59;12.30;99.90
23579;DHT22;11967;50.852;4.400;2023-03-26T04:42:27;12.30;99.90
23579;DHT22;11967;50.852;4.400;2023-03-26T04:44:53;12.40;99.90
23579;DHT22;11967;50.852;4.400;2023-03-26T04:47:18;12.30;99.90
23579;DHT22;11967;50.852;4.400;2023-03-26T04:49:47;12.30;99.90
23579;DHT22;11967;50.852;4.400;2023-03-26T04:52:14;12.30;99.90
23579;DHT22;11967;50.852;4.400;2023-03-26T04:54:43;12.40;99.90
23579;DHT22;11967;50.852;4.400;2023-03-26T04:57:35;12.30;99.90
23579;DHT22;11967;50.852;4.400;2023-03-26T05:00:04;12.40;99.90
23579;DHT22;11967;50.852;4.400;2023-03-26T05:02:39;12.30;99.90
23579;DHT22;11967;50.852;4.400;2023-03-26T05:05:06;12.30;99.90
23579;DHT22;11967;50.852;4.400;2023-03-26T05:07:32;12.30;99.90
23579;DHT22;11967;50.852;4.400;2023-03-26T05:09:58;12.30;99.90
23579;DHT22;11967;50.852;4.400;2023-03-26T05:12:26;12.20;99.90
23579;DHT22;11967;50.852;4.400;2023-03-26T05:14:51;12.20;99.90
23579;DHT22;11967;50.852;4.400;2023-03-26T05:17:17;12.20;99.90
23579;DHT22;11967;50.852;4.400;2023-03-26T05:19:45;12.20;99.90
23579;DHT22;11967;50.852;4.400;2023-03-26T05:22:12;12.20;99.90
23579;DHT22;11967;50.852;4.400;2023-03-26T05:25:30;12.10;99.90
23579;DHT22;11967;50.852;4.400;2023-03-26T05:27:56;12.10;99.90
23579;DHT22;11967;50.852;4.400;2023-03-26T05:30:22;12.10;99.90
23579;DHT22;11967;50.852;4.400;2023-03-26T05:32:48;12.10;99.90
23579;DHT22;11967;50.852;4.400;2023-03-26T05:35:15;12.20;99.90
23579;DHT22;11967;50.852;4.400;2023-03-26T05:37:42;12.20;99.90
23579;DHT22;11967;50.852;4.400;2023-03-26T05:40:09;12.30;99.90
23579;DHT22;11967;50.852;4.400;2023-03-26T05:42:37;12.30;99.90
23579;DHT22;11967;50.852;4.400;2023-03-26T05:45:05;12.30;99.90
23579;DHT22;11967;50.852;4.400;2023-03-26T05:47:31;12.30;99.90
23579;DHT22;11967;50.852;4.400;2023-03-26T05:49:57;12.40;99.90
23579;DHT22;11967;50.852;4.400;2023-03-26T05:52:22;12.40;99.90
23579;DHT22;11967;50.852;4.400;2023-03-26T05:54:49;12.30;99.90
23579;DHT22;11967;50.852;4.400;2023-03-26T05:57:14;12.20;99.90
23579;DHT22;11967;50.852;4.400;2023-03-26T05:59:40;12.20;99.90
23579;DHT22;11967;50.852;4.400;2023-03-26T06:02:08;12.20;99.90
23579;DHT22;11967;50.852;4.400;2023-03-26T06:04:34;12.00;99.90
23579;DHT22;11967;50.852;4.400;2023-03-26T06:07:05;12.00;99.90
23579;DHT22;11967;50.852;4.400;2023-03-26T06:09:35;12.10;99.90
23579;DHT22;11967;50.852;4.400;2023-03-26T06:12:08;12.00;99.90
23579;DHT22;11967;50.852;4.400;2023-03-26T06:14:34;12.10;99.90
23579;DHT22;11967;50.852;4.400;2023-03-26T06:17:01;12.00;99.90
23579;DHT22;11967;50.852;4.400;2023-03-26T06:19:26;12.10;99.90
23579;DHT22;11967;50.852;4.400;2023-03-26T06:21:52;12.10;99.90
23579;DHT22;11967;50.852;4.400;2023-03-26T06:24:19;12.10;99.90
23579;DHT22;11967;50.852;4.400;2023-03-26T06:26:46;12.10;99.90
23579;DHT22;11967;50.852;4.400;2023-03-26T06:29:13;12.10;99.90
23579;DHT22;11967;50.852;4.400;2023-03-26T06:31:40;12.10;99.90
23579;DHT22;11967;50.852;4.400;2023-03-26T06:34:06;12.20;99.90
23579;DHT22;11967;50.852;4.400;2023-03-26T06:36:32;12.10;99.90
23579;DHT22;11967;50.852;4.400;2023-03-26T06:38:58;12.20;99.90
23579;DHT22;11967;50.852;4.400;2023-03-26T06:41:23;12.10;99.90
23579;DHT22;11967;50.852;4.400;2023-03-26T06:43:49;12.10;99.90
23579;DHT22;11967;50.852;4.400;2023-03-26T06:46:15;12.00;99.90
23579;DHT22;11967;50.852;4.400;2023-03-26T06:48:41;12.10;99.90
23579;DHT22;11967;50.852;4.400;2023-03-26T06:51:07;12.10;99.90
23579;DHT22;11967;50.852;4.400;2023-03-26T06:53:33;12.30;99.90
23579;DHT22;11967;50.852;4.400;2023-03-26T06:55:59;12.30;99.90
23579;DHT22;11967;50.852;4.400;2023-03-26T06:58:25;12.20;99.90
23579;DHT22;11967;50.852;4.400;2023-03-26T07:00:54;12.10;99.90
23579;DHT22;11967;50.852;4.400;2023-03-26T07:03:20;12.20;99.90
23579;DHT22;11967;50.852;4.400;2023-03-26T07:05:46;12.10;99.90
23579;DHT22;11967;50.852;4.400;2023-03-26T07:08:12;12.10;99.90
23579;DHT22;11967;50.852;4.400;2023-03-26T07:10:38;12.00;99.90
23579;DHT22;11967;50.852;4.400;2023-03-26T07:13:04;12.10;99.90
23579;DHT22;11967;50.852;4.400;2023-03-26T07:15:29;12.00;99.90
23579;DHT22;11967;50.852;4.400;2023-03-26T07:17:55;11.90;99.90
23579;DHT22;11967;50.852;4.400;2023-03-26T07:20:21;11.90;99.90
23579;DHT22;11967;50.852;4.400;2023-03-26T07:22:47;11.90;99.90
23579;DHT22;11967;50.852;4.400;2023-03-26T07:25:13;11.90;99.90
23579;DHT22;11967;50.852;4.400;2023-03-26T07:30:25;12.00;99.90
23579;DHT22;11967;50.852;4.400;2023-03-26T07:33:10;12.00;99.90
23579;DHT22;11967;50.852;4.400;2023-03-26T07:41:41;11.90;99.90
23579;DHT22;11967;50.852;4.400;2023-03-26T07:44:17;12.00;99.90
23579;DHT22;11967;50.852;4.400;2023-03-26T07:46:48;11.90;99.90
23579;DHT22;11967;50.852;4.400;2023-03-26T07:49:18;12.00;99.90
23579;DHT22;11967;50.852;4.400;2023-03-26T07:51:45;11.90;99.90
23579;DHT22;11967;50.852;4.400;2023-03-26T07:54:11;11.90;99.90
23579;DHT22;11967;50.852;4.400;2023-03-26T07:56:41;12.00;99.90
23579;DHT22;11967;50.852;4.400;2023-03-26T07:59:33;12.00;99.90
23579;DHT22;11967;50.852;4.400;2023-03-26T08:02:30;11.90;99.90
23579;DHT22;11967;50.852;4.400;2023-03-26T08:07:40;12.00;99.90
23579;DHT22;11967;50.852;4.400;2023-03-26T08:15:40;12.10;99.90
23579;DHT22;11967;50.852;4.400;2023-03-26T08:18:38;12.10;99.90
23579;DHT22;11967;50.852;4.400;2023-03-26T08:21:16;12.10;99.90
23579;DHT22;11967;50.852;4.400;2023-03-26T08:24:07;12.10;99.90
23579;DHT22;11967;50.852;4.400;2023-03-26T08:31:39;12.00;99.90
23579;DHT22;11967;50.852;4.400;2023-03-26T08:34:07;12.10;99.90
23579;DHT22;11967;50.852;4.400;2023-03-26T08:36:34;12.20;99.90
23579;DHT22;11967;50.852;4.400;2023-03-26T08:38:59;12.10;99.90
23579;DHT22;11967;50.852;4.400;2023-03-26T08:41:34;12.10;99.90
23579;DHT22;11967;50.852;4.400;2023-03-26T08:52:23;12.10;99.90
23579;DHT22;11967;50.852;4.400;2023-03-26T09:05:56;12.10;99.90
23579;DHT22;11967;50.852;4.400;2023-03-26T09:14:17;12.00;99.90
23579;DHT22;11967;50.852;4.400;2023-03-26T09:22:56;12.10;99.90
23579;DHT22;11967;50.852;4.400;2023-03-26T09:34:06;12.20;99.90
23579;DHT22;11967;50.852;4.400;2023-03-26T09:39:35;12.40;99.90
23579;DHT22;11967;50.852;4.400;2023-03-26T09:51:09;12.00;99.90
23579;DHT22;11967;50.852;4.400;2023-03-26T10:02:31;11.90;99.90
23579;DHT22;11967;50.852;4.400;2023-03-26T10:05:02;11.90;99.90
23579;DHT22;11967;50.852;4.400;2023-03-26T10:07:47;11.90;99.90
23579;DHT22;11967;50.852;4.400;2023-03-26T10:12:47;11.90;99.90
23579;DHT22;11967;50.852;4.400;2023-03-26T10:18:20;11.90;99.90
23579;DHT22;11967;50.852;4.400;2023-03-26T10:20:54;12.00;99.90
23579;DHT22;11967;50.852;4.400;2023-03-26T10:26:04;12.00;99.90
23579;DHT22;11967;50.852;4.400;2023-03-26T10:31:29;12.00;99.90
23579;DHT22;11967;50.852;4.400;2023-03-26T10:34:30;11.90;99.90
23579;DHT22;11967;50.852;4.400;2023-03-26T10:37:09;12.00;99.90
23579;DHT22;11967;50.852;4.400;2023-03-26T10:40:08;12.00;99.90
23579;DHT22;11967;50.852;4.400;2023-03-26T10:46:01;12.00;99.90
23579;DHT22;11967;50.852;4.400;2023-03-26T10:48:39;12.10;99.90
23579;DHT22;11967;50.852;4.400;2023-03-26T10:54:02;12.20;99.90
23579;DHT22;11967;50.852;4.400;2023-03-26T10:59:04;12.10;99.90
23579;DHT22;11967;50.852;4.400;2023-03-26T11:04:18;12.20;99.90
23579;DHT22;11967;50.852;4.400;2023-03-26T11:07:05;12.20;99.90
23579;DHT22;11967;50.852;4.400;2023-03-26T11:09:49;12.10;99.90
23579;DHT22;11967;50.852;4.400;2023-03-26T11:18:15;12.10;99.90
23579;DHT22;11967;50.852;4.400;2023-03-26T11:20:45;12.10;99.90
23579;DHT22;11967;50.852;4.400;2023-03-26T11:34:17;12.70;99.90
23579;DHT22;11967;50.852;4.400;2023-03-26T11:36:51;12.60;99.90
23579;DHT22;11967;50.852;4.400;2023-03-26T11:39:27;12.50;99.90
23579;DHT22;11967;50.852;4.400;2023-03-26T11:42:08;12.50;99.90
23579;DHT22;11967;50.852;4.400;2023-03-26T11:44:40;12.50;99.90
23579;DHT22;11967;50.852;4.400;2023-03-26T11:47:09;12.40;99.90
23579;DHT22;11967;50.852;4.400;2023-03-26T11:49:36;12.50;99.90
23579;DHT22;11967;50.852;4.400;2023-03-26T11:52:03;12.30;99.90
23579;DHT22;11967;50.852;4.400;2023-03-26T11:54:28;12.40;99.90
23579;DHT22;11967;50.852;4.400;2023-03-26T11:57:07;12.40;99.90
23579;DHT22;11967;50.852;4.400;2023-03-26T12:00:02;12.30;99.90
23579;DHT22;11967;50.852;4.400;2023-03-26T12:02:39;12.30;99.90
23579;DHT22;11967;50.852;4.400;2023-03-26T12:07:35;12.40;99.90
23579;DHT22;11967;50.852;4.400;2023-03-26T12:10:05;12.50;99.90
23579;DHT22;11967;50.852;4.400;2023-03-26T12:12:36;12.50;99.90
23579;DHT22;11967;50.852;4.400;2023-03-26T12:15:04;12.50;99.90
23579;DHT22;11967;50.852;4.400;2023-03-26T12:17:37;12.50;99.90
23579;DHT22;11967;50.852;4.400;2023-03-26T12:22:52;12.50;99.90
23579;DHT22;11967;50.852;4.400;2023-03-26T12:25:33;12.50;99.90
23579;DHT22;11967;50.852;4.400;2023-03-26T12:28:16;12.50;99.90
23579;DHT22;11967;50.852;4.400;2023-03-26T12:31:01;12.50;99.90
23579;DHT22;11967;50.852;4.400;2023-03-26T12:33:32;12.50;99.90
23579;DHT22;11967;50.852;4.400;2023-03-26T12:36:35;12.50;99.90
23579;DHT22;11967;50.852;4.400;2023-03-26T12:39:31;12.60;99.90
23579;DHT22;11967;50.852;4.400;2023-03-26T12:42:00;12.60;99.90
23579;DHT22;11967;50.852;4.400;2023-03-26T12:44:33;12.70;99.90
23579;DHT22;11967;50.852;4.400;2023-03-26T12:47:21;12.90;99.90
23579;DHT22;11967;50.852;4.400;2023-03-26T12:49:48;13.00;99.90
23579;DHT22;11967;50.852;4.400;2023-03-26T12:58:47;13.00;99.90
23579;DHT22;11967;50.852;4.400;2023-03-26T13:17:25;12.90;99.90
23579;DHT22;11967;50.852;4.400;2023-03-26T13:20:02;13.00;99.90
23579;DHT22;11967;50.852;4.400;2023-03-26T13:22:52;13.00;99.90
23579;DHT22;11967;50.852;4.400;2023-03-26T13:25:38;13.10;99.90
23579;DHT22;11967;50.852;4.400;2023-03-26T13:34:02;13.30;99.90
23579;DHT22;11967;50.852;4.400;2023-03-26T13:39:35;13.30;99.90
23579;DHT22;11967;50.852;4.400;2023-03-26T13:42:17;13.20;99.90
23579;DHT22;11967;50.852;4.400;2023-03-26T13:45:11;13.20;99.90
23579;DHT22;11967;50.852;4.400;2023-03-26T13:47:44;13.10;99.90
23579;DHT22;11967;50.852;4.400;2023-03-26T13:53:12;13.10;99.90
23579;DHT22;11967;50.852;4.400;2023-03-26T13:55:47;13.00;99.90
23579;DHT22;11967;50.852;4.400;2023-03-26T14:00:51;13.20;99.90
23579;DHT22;11967;50.852;4.400;2023-03-26T14:05:59;13.10;99.90
23579;DHT22;11967;50.852;4.400;2023-03-26T14:08:32;13.10;99.90
23579;DHT22;11967;50.852;4.400;2023-03-26T14:11:07;13.10;99.90
23579;DHT22;11967;50.852;4.400;2023-03-26T14:13:46;13.20;99.90
23579;DHT22;11967;50.852;4.400;2023-03-26T14:16:35;13.30;99.90
23579;DHT22;11967;50.852;4.400;2023-03-26T14:30:27;13.20;99.90
23579;DHT22;11967;50.852;4.400;2023-03-26T14:36:03;13.10;99.90
23579;DHT22;11967;50.852;4.400;2023-03-26T14:41:44;13.00;99.90
23579;DHT22;11967;50.852;4.400;2023-03-26T14:44:39;13.00;99.90
23579;DHT22;11967;50.852;4.400;2023-03-26T14:47:12;13.00;99.90
23579;DHT22;11967;50.852;4.400;2023-03-26T15:01:20;13.00;99.90
23579;DHT22;11967;50.852;4.400;2023-03-26T15:27:45;13.20;99.90
23579;DHT22;11967;50.852;4.400;2023-03-26T15:41:15;13.10;99.90
23579;DHT22;11967;50.852;4.400;2023-03-26T15:46:32;13.20;99.90
23579;DHT22;11967;50.852;4.400;2023-03-26T15:49:21;13.10;99.90
23579;DHT22;11967;50.852;4.400;2023-03-26T15:51:57;13.10;99.90
23579;DHT22;11967;50.852;4.400;2023-03-26T15:54:32;13.10;99.90
23579;DHT22;11967;50.852;4.400;2023-03-26T16:05:26;13.00;99.90
23579;DHT22;11967;50.852;4.400;2023-03-26T16:08:00;12.90;99.90
23579;DHT22;11967;50.852;4.400;2023-03-26T16:10:47;12.90;99.90
23579;DHT22;11967;50.852;4.400;2023-03-26T16:21:16;12.80;99.90
23579;DHT22;11967;50.852;4.400;2023-03-26T16:33:51;13.20;99.90
23579;DHT22;11967;50.852;4.400;2023-03-26T16:41:33;13.00;99.90
23579;DHT22;11967;50.852;4.400;2023-03-26T16:47:59;12.90;99.90
23579;DHT22;11967;50.852;4.400;2023-03-26T16:55:53;12.90;99.90
23579;DHT22;11967;50.852;4.400;2023-03-26T17:04:09;12.90;99.90
23579;DHT22;11967;50.852;4.400;2023-03-26T17:15:21;13.20;99.90
23579;DHT22;11967;50.852;4.400;2023-03-26T17:18:03;13.30;99.90
23579;DHT22;11967;50.852;4.400;2023-03-26T17:20:41;13.30;99.90
23579;DHT22;11967;50.852;4.400;2023-03-26T17:26:18;13.30;99.90
23579;DHT22;11967;50.852;4.400;2023-03-26T17:32:06;13.20;99.90
23579;DHT22;11967;50.852;4.400;2023-03-26T17:37:03;13.10;99.90
23579;DHT22;11967;50.852;4.400;2023-03-26T17:44:55;13.00;99.90
23579;DHT22;11967;50.852;4.400;2023-03-26T17:49:57;12.90;99.90
23579;DHT22;11967;50.852;4.400;2023-03-26T17:52:33;12.80;99.90
23579;DHT22;11967;50.852;4.400;2023-03-26T17:55:08;13.10;99.90
23579;DHT22;11967;50.852;4.400;2023-03-26T17:57:46;13.10;99.90
23579;DHT22;11967;50.852;4.400;2023-03-26T18:00:18;13.20;99.90
23579;DHT22;11967;50.852;4.400;2023-03-26T18:02:50;13.00;99.90
23579;DHT22;11967;50.852;4.400;2023-03-26T18:05:18;12.90;99.90
23579;DHT22;11967;50.852;4.400;2023-03-26T18:16:12;12.80;99.90
23579;DHT22;11967;50.852;4.400;2023-03-26T18:18:55;12.80;99.90
23579;DHT22;11967;50.852;4.400;2023-03-26T18:21:35;12.80;99.90
23579;DHT22;11967;50.852;4.400;2023-03-26T18:24:04;12.90;99.90
23579;DHT22;11967;50.852;4.400;2023-03-26T18:26:40;12.80;99.90
23579;DHT22;11967;50.852;4.400;2023-03-26T18:29:30;12.80;99.90
23579;DHT22;11967;50.852;4.400;2023-03-26T18:34:48;12.70;99.90
23579;DHT22;11967;50.852;4.400;2023-03-26T18:37:21;12.70;99.90
23579;DHT22;11967;50.852;4.400;2023-03-26T18:40:06;12.70;99.90
23579;DHT22;11967;50.852;4.400;2023-03-26T18:42:44;12.60;99.90
23579;DHT22;11967;50.852;4.400;2023-03-26T18:45:35;12.60;99.90
23579;DHT22;11967;50.852;4.400;2023-03-26T18:48:08;12.60;99.90
23579;DHT22;11967;50.852;4.400;2023-03-26T18:50:40;12.60;99.90
23579;DHT22;11967;50.852;4.400;2023-03-26T18:53:20;12.50;99.90
23579;DHT22;11967;50.852;4.400;2023-03-26T18:55:48;12.50;99.90
23579;DHT22;11967;50.852;4.400;2023-03-26T19:00:51;12.30;99.90
23579;DHT22;11967;50.852;4.400;2023-03-26T19:03:21;12.30;99.90
23579;DHT22;11967;50.852;4.400;2023-03-26T19:05:52;12.40;99.90
23579;DHT22;11967;50.852;4.400;2023-03-26T19:08:19;12.40;99.90
23579;DHT22;11967;50.852;4.400;2023-03-26T19:10:46;12.40;99.90
23579;DHT22;11967;50.852;4.400;2023-03-26T19:13:15;12.40;99.90
23579;DHT22;11967;50.852;4.400;2023-03-26T19:15:44;12.40;99.90
23579;DHT22;11967;50.852;4.400;2023-03-26T19:18:19;12.30;99.90
23579;DHT22;11967;50.852;4.400;2023-03-26T19:20:49;12.30;99.90
23579;DHT22;11967;50.852;4.400;2023-03-26T19:23:19;12.40;99.90
23579;DHT22;11967;50.852;4.400;2023-03-26T19:25:47;12.40;99.90
23579;DHT22;11967;50.852;4.400;2023-03-26T19:28:52;12.40;99.90
23579;DHT22;11967;50.852;4.400;2023-03-26T19:31:48;12.40;99.90
23579;DHT22;11967;50.852;4.400;2023-03-26T19:34:24;12.50;99.90
23579;DHT22;11967;50.852;4.400;2023-03-26T19:36:52;12.60;99.90
23579;DHT22;11967;50.852;4.400;2023-03-26T19:39:44;12.50;99.90
23579;DHT22;11967;50.852;4.400;2023-03-26T19:42:17;12.40;99.90
23579;DHT22;11967;50.852;4.400;2023-03-26T19:44:44;12.40;99.90
23579;DHT22;11967;50.852;4.400;2023-03-26T19:47:22;12.40;99.90
23579;DHT22;11967;50.852;4.400;2023-03-26T19:53:13;12.50;99.90
23579;DHT22;11967;50.852;4.400;2023-03-26T19:55:56;12.40;99.90
23579;DHT22;11967;50.852;4.400;2023-03-26T19:58:25;12.50;99.90
23579;DHT22;11967;50.852;4.400;2023-03-26T20:00:51;12.40;99.90
23579;DHT22;11967;50.852;4.400;2023-03-26T20:03:23;12.30;99.90
23579;DHT22;11967;50.852;4.400;2023-03-26T20:05:50;12.30;99.90
23579;DHT22;11967;50.852;4.400;2023-03-26T20:08:18;12.30;99.90
23579;DHT22;11967;50.852;4.400;2023-03-26T20:10:46;12.20;99.90
23579;DHT22;11967;50.852;4.400;2023-03-26T20:14:08;12.10;99.90
23579;DHT22;11967;50.852;4.400;2023-03-26T20:16:32;12.10;99.90
23579;DHT22;11967;50.852;4.400;2023-03-26T20:19:01;12.10;99.90
23579;DHT22;11967;50.852;4.400;2023-03-26T20:21:29;12.00;99.90
23579;DHT22;11967;50.852;4.400;2023-03-26T20:23:57;12.00;99.90
23579;DHT22;11967;50.852;4.400;2023-03-26T20:29:10;11.90;99.90
23579;DHT22;11967;50.852;4.400;2023-03-26T20:31:36;12.10;99.90
23579;DHT22;11967;50.852;4.400;2023-03-26T20:34:02;12.10;99.90
23579;DHT22;11967;50.852;4.400;2023-03-26T20:36:28;12.10;99.90
23579;DHT22;11967;50.852;4.400;2023-03-26T20:38:57;12.10;99.90
23579;DHT22;11967;50.852;4.400;2023-03-26T20:41:26;12.00;99.90
23579;DHT22;11967;50.852;4.400;2023-03-26T20:43:53;12.00;99.90
23579;DHT22;11967;50.852;4.400;2023-03-26T20:46:23;11.80;99.90
23579;DHT22;11967;50.852;4.400;2023-03-26T20:48:50;11.90;99.90
23579;DHT22;11967;50.852;4.400;2023-03-26T20:51:17;11.90;99.90
23579;DHT22;11967;50.852;4.400;2023-03-26T20:53:45;12.00;99.90
23579;DHT22;11967;50.852;4.400;2023-03-26T20:56:16;12.00;99.90
23579;DHT22;11967;50.852;4.400;2023-03-26T20:58:43;12.00;99.90
23579;DHT22;11967;50.852;4.400;2023-03-26T21:01:25;12.00;99.90
23579;DHT22;11967;50.852;4.400;2023-03-26T21:03:52;11.90;99.90
23579;DHT22;11967;50.852;4.400;2023-03-26T21:06:17;11.90;99.90
23579;DHT22;11967;50.852;4.400;2023-03-26T21:08:44;11.80;99.90
23579;DHT22;11967;50.852;4.400;2023-03-26T21:11:21;11.80;99.90
23579;DHT22;11967;50.852;4.400;2023-03-26T21:14:07;11.80;99.90
23579;DHT22;11967;50.852;4.400;2023-03-26T21:16:33;11.80;99.90
23579;DHT22;11967;50.852;4.400;2023-03-26T21:18:59;11.80;99.90
23579;DHT22;11967;50.852;4.400;2023-03-26T21:21:48;11.70;99.90
23579;DHT22;11967;50.852;4.400;2023-03-26T21:24:57;11.80;99.90
23579;DHT22;11967;50.852;4.400;2023-03-26T21:27:29;11.70;99.90
23579;DHT22;11967;50.852;4.400;2023-03-26T21:30:01;11.70;99.90
23579;DHT22;11967;50.852;4.400;2023-03-26T21:32:30;11.70;99.90
23579;DHT22;11967;50.852;4.400;2023-03-26T21:34:56;11.90;99.90
23579;DHT22;11967;50.852;4.400;2023-03-26T21:37:22;11.80;99.90
23579;DHT22;11967;50.852;4.400;2023-03-26T21:39:47;11.90;99.90